createdAt,value
2023-03-16T00:00:17.605Z,28.50
2023-03-16T00:02:46.503Z,28.83
2023-03-16T00:05:16.083Z,32.43
2023-03-16T00:07:45.079Z,26.60
2023-03-16T00:10:14.716Z,25.43
2023-03-16T00:12:45.131Z,25.67
2023-03-16T00:15:16.390Z,23.37
2023-03-16T00:17:48.906Z,27.80
2023-03-16T00:20:18.903Z,25.13
2023-03-16T00:22:47.757Z,24.70
2023-03-16T00:25:17.130Z,25.53
2023-03-16T00:27:46.029Z,25.87
2023-03-16T00:30:17.034Z,23.37
2023-03-16T00:32:45.828Z,29.30
2023-03-16T00:35:14.666Z,25.10
2023-03-16T00:37:45.048Z,28.27
2023-03-16T00:40:14.940Z,25.70
2023-03-16T00:42:44.734Z,28.03
2023-03-16T00:45:14.939Z,25.67
2023-03-16T00:47:43.800Z,22.20
2023-03-16T00:50:12.939Z,23.53
2023-03-16T00:52:43.444Z,22.57
2023-03-16T00:55:12.341Z,28.10
2023-03-16T00:57:41.600Z,25.70
2023-03-16T01:00:15.780Z,26.10
2023-03-16T01:02:46.523Z,24.50
2023-03-16T01:05:16.121Z,25.53
2023-03-16T01:07:45.353Z,24.43
2023-03-16T01:10:14.847Z,24.47
2023-03-16T01:12:45.210Z,25.57
2023-03-16T01:15:14.404Z,23.77
2023-03-16T01:17:43.283Z,21.47
2023-03-16T01:20:15.627Z,22.57
2023-03-16T01:22:44.501Z,21.57
2023-03-16T01:25:14.023Z,20.47
2023-03-16T01:27:44.263Z,16.57
2023-03-16T01:30:14.113Z,19.27
2023-03-16T01:32:43.444Z,19.77
2023-03-16T01:35:16.490Z,19.40
2023-03-16T01:37:45.394Z,20.37
2023-03-16T01:40:20.460Z,14.20
2023-03-16T01:42:51.493Z,15.10
2023-03-16T01:45:58.574Z,15.87
2023-03-16T01:48:28.850Z,18.67
2023-03-16T01:50:59.188Z,14.93
2023-03-16T01:53:28.161Z,12.63
2023-03-16T01:55:59.750Z,17.43
2023-03-16T01:58:29.180Z,17.23
2023-03-16T02:00:58.830Z,12.70
2023-03-16T02:03:30.128Z,12.77
2023-03-16T02:06:13.008Z,11.03
2023-03-16T02:08:48.955Z,16.37
2023-03-16T02:11:18.830Z,13.63
2023-03-16T02:14:04.324Z,14.03
2023-03-16T02:16:33.243Z,13.93
2023-03-16T02:19:02.229Z,15.07
2023-03-16T02:21:41.594Z,13.57
2023-03-16T02:24:11.153Z,12.20
2023-03-16T02:26:45.993Z,14.10
2023-03-16T02:29:29.833Z,17.30
2023-03-16T02:32:02.871Z,10.73
2023-03-16T02:34:31.916Z,14.60
2023-03-16T02:37:01.663Z,12.30
2023-03-16T02:39:31.435Z,11.50
2023-03-16T02:42:00.810Z,12.27
2023-03-16T02:44:34.901Z,13.50
2023-03-16T02:47:12.559Z,11.70
2023-03-16T02:49:45.487Z,14.23
2023-03-16T02:52:14.760Z,13.23
2023-03-16T02:54:43.654Z,18.37
2023-03-16T02:57:12.938Z,12.43
2023-03-16T02:59:41.858Z,15.80
2023-03-16T03:02:13.610Z,13.70
2023-03-16T03:04:42.418Z,13.30
2023-03-16T03:07:11.333Z,15.70
2023-03-16T03:09:56.670Z,17.07
2023-03-16T03:12:25.595Z,14.47
2023-03-16T03:14:54.386Z,15.90
2023-03-16T03:17:30.025Z,14.50
2023-03-16T03:20:00.182Z,13.97
2023-03-16T03:22:29.720Z,11.93
2023-03-16T03:24:58.480Z,12.57
2023-03-16T03:27:27.381Z,18.37
2023-03-16T03:29:56.406Z,17.13
2023-03-16T03:32:26.768Z,17.03
2023-03-16T03:34:55.713Z,13.93
2023-03-16T03:37:25.765Z,13.43
2023-03-16T03:39:54.708Z,14.43
2023-03-16T03:42:24.590Z,17.80
2023-03-16T03:44:54.307Z,15.40
2023-03-16T03:47:23.208Z,13.90
2023-03-16T03:49:53.481Z,12.37
2023-03-16T03:52:22.442Z,14.17
2023-03-16T03:54:51.685Z,16.70
2023-03-16T03:57:21.917Z,14.47
2023-03-16T03:59:51.423Z,15.40
2023-03-16T04:02:39.416Z,15.27
2023-03-16T04:05:14.931Z,15.40
2023-03-16T04:07:43.780Z,15.10
2023-03-16T04:10:14.774Z,16.97
2023-03-16T04:12:45.238Z,16.67
2023-03-16T04:15:15.951Z,14.20
2023-03-16T04:17:54.069Z,13.80
2023-03-16T04:20:24.323Z,13.83
2023-03-16T04:22:58.582Z,16.73
2023-03-16T04:25:30.568Z,14.57
2023-03-16T04:28:00.679Z,16.47
2023-03-16T04:30:32.000Z,14.77
2023-03-16T04:33:12.640Z,14.23
2023-03-16T04:35:43.204Z,14.93
2023-03-16T04:38:12.737Z,10.67
2023-03-16T04:40:52.256Z,15.23
2023-03-16T04:43:24.907Z,13.27
2023-03-16T04:45:58.240Z,11.83
2023-03-16T04:48:32.188Z,11.57
2023-03-16T04:51:03.908Z,13.70
2023-03-16T04:53:35.181Z,14.10
2023-03-16T04:56:18.110Z,11.97
2023-03-16T04:58:49.549Z,11.70
2023-03-16T05:01:19.722Z,11.43
2023-03-16T05:03:50.199Z,11.63
2023-03-16T05:06:20.990Z,13.00
2023-03-16T05:08:49.878Z,12.57
2023-03-16T05:11:19.055Z,15.13
2023-03-16T05:13:57.716Z,11.13
2023-03-16T05:16:28.282Z,9.83
2023-03-16T05:18:59.558Z,11.10
2023-03-16T05:21:34.227Z,12.93
2023-03-16T05:24:07.391Z,9.83
2023-03-16T05:26:36.595Z,17.77
2023-03-16T05:29:07.406Z,13.57
2023-03-16T05:31:37.508Z,14.53
2023-03-16T05:34:12.457Z,16.93
2023-03-16T05:36:42.671Z,18.50
2023-03-16T05:39:15.538Z,16.50
2023-03-16T05:41:48.348Z,14.67
2023-03-16T05:44:26.960Z,16.60
2023-03-16T05:47:17.601Z,14.50
2023-03-16T05:49:51.681Z,17.67
2023-03-16T05:52:30.059Z,19.43
2023-03-16T05:55:00.599Z,13.63
2023-03-16T05:57:29.542Z,11.10
2023-03-16T06:00:01.845Z,15.13
2023-03-16T06:02:41.695Z,16.23
2023-03-16T06:05:11.470Z,15.30
2023-03-16T06:07:44.977Z,13.30
2023-03-16T06:10:15.523Z,15.33
2023-03-16T06:12:45.265Z,16.97
2023-03-16T06:15:14.915Z,10.23
2023-03-16T06:17:43.775Z,13.37
2023-03-16T06:20:14.874Z,15.23
2023-03-16T06:22:46.770Z,15.13
2023-03-16T06:25:17.168Z,16.60
2023-03-16T06:27:49.173Z,14.37
2023-03-16T06:30:19.989Z,11.97
2023-03-16T06:32:49.824Z,11.10
2023-03-16T06:35:18.860Z,14.93
2023-03-16T06:38:00.484Z,13.20
2023-03-16T06:40:55.432Z,11.80
2023-03-16T06:43:25.571Z,15.00
2023-03-16T06:45:55.157Z,16.00
2023-03-16T06:48:24.928Z,12.07
2023-03-16T06:50:53.904Z,14.97
2023-03-16T06:53:28.395Z,11.67
2023-03-16T06:55:58.719Z,18.47
2023-03-16T06:58:29.340Z,10.30
2023-03-16T07:00:58.246Z,11.97
2023-03-16T07:03:27.307Z,11.93
2023-03-16T07:06:01.728Z,12.37
2023-03-16T07:08:31.971Z,10.77
2023-03-16T07:11:01.479Z,13.60
2023-03-16T07:13:30.556Z,8.27
2023-03-16T07:16:00.275Z,10.13
2023-03-16T07:18:30.265Z,8.53
2023-03-16T07:20:59.406Z,13.47
2023-03-16T07:23:28.859Z,7.43
2023-03-16T07:26:08.242Z,7.63
2023-03-16T07:28:39.937Z,10.13
2023-03-16T07:31:10.321Z,10.33
2023-03-16T07:33:42.048Z,6.83
2023-03-16T07:36:15.282Z,14.67
2023-03-16T07:38:51.477Z,8.10
2023-03-16T07:41:22.183Z,10.40
2023-03-16T07:43:50.967Z,13.53
2023-03-16T07:46:19.838Z,11.40
2023-03-16T07:48:48.680Z,11.30
2023-03-16T07:51:17.998Z,8.43
2023-03-16T07:53:49.983Z,12.93
2023-03-16T07:56:24.379Z,9.27
2023-03-16T07:58:56.414Z,7.73
2023-03-16T08:01:25.408Z,12.33
2023-03-16T08:03:54.706Z,11.53
2023-03-16T08:06:25.447Z,9.33
2023-03-16T08:08:54.345Z,9.87
2023-03-16T08:11:31.797Z,8.93
2023-03-16T08:14:05.445Z,10.50
2023-03-16T08:16:57.274Z,9.73
2023-03-16T08:19:27.794Z,8.27
2023-03-16T08:22:02.104Z,7.70
2023-03-16T08:24:38.901Z,7.93
2023-03-16T08:27:12.082Z,11.37
2023-03-16T08:29:44.248Z,11.27
2023-03-16T08:32:16.857Z,9.77
2023-03-16T08:34:47.359Z,11.07
2023-03-16T08:37:16.854Z,6.60
2023-03-16T08:39:47.375Z,8.30
2023-03-16T08:42:20.302Z,6.80
2023-03-16T08:44:55.280Z,11.83
2023-03-16T08:47:24.535Z,9.03
2023-03-16T08:49:53.501Z,9.30
2023-03-16T08:52:23.111Z,12.07
2023-03-16T08:55:02.302Z,5.87
2023-03-16T08:57:34.303Z,6.63
2023-03-16T09:00:08.913Z,7.67
2023-03-16T09:02:38.762Z,7.97
2023-03-16T09:05:09.588Z,14.03
2023-03-16T09:07:39.418Z,7.83
2023-03-16T09:10:09.095Z,6.93
2023-03-16T09:12:40.888Z,8.90
2023-03-16T09:15:12.141Z,7.30
2023-03-16T09:17:41.675Z,7.47
2023-03-16T09:20:22.176Z,7.97
2023-03-16T09:22:51.393Z,12.33
2023-03-16T09:25:20.568Z,10.80
2023-03-16T09:27:50.736Z,5.63
2023-03-16T09:30:19.915Z,6.70
2023-03-16T09:32:49.299Z,5.17
2023-03-16T09:35:18.158Z,5.73
2023-03-16T09:38:04.753Z,5.13
2023-03-16T09:40:36.318Z,11.77
2023-03-16T09:43:21.960Z,4.67
2023-03-16T09:45:57.468Z,7.00
2023-03-16T09:48:29.289Z,7.40
2023-03-16T09:51:00.015Z,7.80
2023-03-16T09:53:30.848Z,10.20
2023-03-16T09:56:04.487Z,9.80
2023-03-16T09:58:34.488Z,8.33
2023-03-16T10:01:11.209Z,7.10
2023-03-16T10:04:00.638Z,7.43
2023-03-16T10:06:31.219Z,9.07
2023-03-16T10:09:08.091Z,13.33
2023-03-16T10:11:41.263Z,10.87
2023-03-16T10:14:19.594Z,6.47
2023-03-16T10:16:51.872Z,11.87
2023-03-16T10:19:24.570Z,5.83
2023-03-16T10:21:58.008Z,7.47
2023-03-16T10:24:41.090Z,7.63
2023-03-16T10:27:17.747Z,7.53
2023-03-16T10:29:48.648Z,6.83
2023-03-16T10:32:20.064Z,7.27
2023-03-16T10:34:56.174Z,8.77
2023-03-16T10:37:26.639Z,11.57
2023-03-16T10:39:56.517Z,10.57
2023-03-16T10:42:27.169Z,11.10
2023-03-16T10:45:03.292Z,7.47
2023-03-16T10:47:34.376Z,6.20
2023-03-16T10:50:14.425Z,5.53
2023-03-16T10:52:47.139Z,6.73
2023-03-16T10:55:20.652Z,7.40
2023-03-16T10:57:51.249Z,7.43
2023-03-16T11:00:26.551Z,6.90
2023-03-16T11:02:57.101Z,4.03
2023-03-16T11:05:32.289Z,7.33
2023-03-16T11:08:03.741Z,4.87
2023-03-16T11:10:40.432Z,4.43
2023-03-16T11:13:15.957Z,7.33
2023-03-16T11:15:53.017Z,5.50
2023-03-16T11:18:29.608Z,6.70
2023-03-16T11:21:02.107Z,3.73
2023-03-16T11:23:34.380Z,3.37
2023-03-16T11:26:06.965Z,3.67
2023-03-16T11:28:39.639Z,6.13
2023-03-16T11:31:20.114Z,3.97
2023-03-16T11:33:50.125Z,3.63
2023-03-16T11:36:30.416Z,5.30
2023-03-16T11:39:08.599Z,3.37
2023-03-16T11:41:49.531Z,4.30
2023-03-16T11:44:26.079Z,3.30
2023-03-16T11:47:04.544Z,4.07
2023-03-16T11:49:53.900Z,5.73
2023-03-16T11:52:34.404Z,8.70
2023-03-16T11:55:19.504Z,6.60
2023-03-16T11:57:59.554Z,4.43
2023-03-16T12:00:38.556Z,4.50
2023-03-16T12:03:54.046Z,3.53
2023-03-16T12:06:31.651Z,5.93
2023-03-16T12:09:26.695Z,4.10
2023-03-16T12:11:58.926Z,4.40
2023-03-16T12:14:38.756Z,4.97
2023-03-16T12:17:18.792Z,8.30
2023-03-16T12:19:54.115Z,4.87
2023-03-16T12:22:28.843Z,2.43
2023-03-16T12:24:58.484Z,3.10
2023-03-16T12:27:32.682Z,2.87
2023-03-16T12:30:11.545Z,6.90
2023-03-16T12:32:47.886Z,4.00
2023-03-16T12:35:30.366Z,5.53
2023-03-16T12:38:15.683Z,3.00
2023-03-16T12:40:53.932Z,3.53
2023-03-16T12:43:35.639Z,3.87
2023-03-16T12:46:08.925Z,4.80
2023-03-16T12:48:41.905Z,3.50
2023-03-16T12:51:12.221Z,6.90
2023-03-16T12:53:46.810Z,8.33
2023-03-16T12:56:18.725Z,4.13
2023-03-16T12:58:49.713Z,2.50
2023-03-16T13:01:21.528Z,4.03
2023-03-16T13:03:52.197Z,2.23
2023-03-16T13:06:24.967Z,5.07
2023-03-16T13:08:57.833Z,3.80
2023-03-16T13:11:27.109Z,3.27
2023-03-16T13:14:09.570Z,5.17
2023-03-16T13:16:39.141Z,5.57
2023-03-16T13:19:28.759Z,2.63
2023-03-16T13:22:19.750Z,4.03
2023-03-16T13:24:53.872Z,4.47
2023-03-16T13:27:27.083Z,1.83
2023-03-16T13:29:58.578Z,4.60
2023-03-16T13:32:32.128Z,3.27
2023-03-16T13:35:03.320Z,2.07
2023-03-16T13:37:33.903Z,2.77
2023-03-16T13:40:04.547Z,2.63
2023-03-16T13:42:34.661Z,3.70
2023-03-16T13:45:14.509Z,3.30
2023-03-16T13:47:44.629Z,3.77
2023-03-16T13:50:15.156Z,4.97
2023-03-16T13:52:53.010Z,2.83
2023-03-16T13:55:28.582Z,2.67
2023-03-16T13:57:57.460Z,3.77
2023-03-16T14:00:29.043Z,4.30
2023-03-16T14:03:02.056Z,4.80
2023-03-16T14:05:35.177Z,3.70
2023-03-16T14:08:05.619Z,2.97
2023-03-16T14:10:36.445Z,2.50
2023-03-16T14:13:10.105Z,3.43
2023-03-16T14:15:39.639Z,1.40
2023-03-16T14:18:16.393Z,2.27
2023-03-16T14:20:45.274Z,2.87
2023-03-16T14:23:24.597Z,4.53
2023-03-16T14:25:54.811Z,3.23
2023-03-16T14:28:32.103Z,3.00
2023-03-16T14:31:07.273Z,4.03
2023-03-16T14:33:40.074Z,2.63
2023-03-16T14:36:12.959Z,4.87
2023-03-16T14:38:45.464Z,3.10
2023-03-16T14:41:21.821Z,3.83
2023-03-16T14:43:53.255Z,1.20
2023-03-16T14:46:29.637Z,2.30
2023-03-16T14:49:05.330Z,3.93
2023-03-16T14:51:35.646Z,3.50
2023-03-16T14:54:12.183Z,1.87
2023-03-16T14:56:42.400Z,5.47
2023-03-16T14:59:11.347Z,4.40
2023-03-16T15:01:40.088Z,3.20
2023-03-16T15:04:08.909Z,2.23
2023-03-16T15:06:37.689Z,2.90
2023-03-16T15:09:08.183Z,2.70
2023-03-16T15:11:38.433Z,4.17
2023-03-16T15:14:35.442Z,3.60
2023-03-16T15:17:04.351Z,3.27
2023-03-16T15:19:33.082Z,3.77
2023-03-16T15:22:02.858Z,2.40
2023-03-16T15:24:33.419Z,3.97
2023-03-16T15:27:02.348Z,3.00
2023-03-16T15:29:31.147Z,4.97
2023-03-16T15:31:59.946Z,3.87
2023-03-16T15:34:28.929Z,3.17
2023-03-16T15:36:57.821Z,3.80
2023-03-16T15:39:26.692Z,4.40
2023-03-16T15:41:56.907Z,4.53
2023-03-16T15:44:25.700Z,3.37
2023-03-16T15:46:55.909Z,2.77
2023-03-16T15:49:25.880Z,5.67
2023-03-16T15:51:55.879Z,3.97
2023-03-16T15:54:24.712Z,3.17
2023-03-16T15:56:54.775Z,3.43
2023-03-16T15:59:27.164Z,2.90
2023-03-16T16:01:55.939Z,4.17
2023-03-16T16:04:25.745Z,5.50
2023-03-16T16:06:55.458Z,3.97
2023-03-16T16:09:24.469Z,3.90
2023-03-16T16:11:53.316Z,3.30
2023-03-16T16:14:28.050Z,4.63
2023-03-16T16:16:57.022Z,6.10
2023-03-16T16:19:25.702Z,6.80
2023-03-16T16:21:54.456Z,11.33
2023-03-16T16:24:23.512Z,8.13
2023-03-16T16:26:55.311Z,6.03
2023-03-16T16:29:30.069Z,5.43
2023-03-16T16:31:59.146Z,3.13
2023-03-16T16:34:28.686Z,3.30
2023-03-16T16:36:58.310Z,2.37
2023-03-16T16:39:27.461Z,4.13
2023-03-16T16:41:57.959Z,2.33
2023-03-16T16:44:34.476Z,5.20
2023-03-16T16:47:04.302Z,4.70
2023-03-16T16:49:35.244Z,4.27
2023-03-16T16:52:04.115Z,3.43
2023-03-16T16:54:33.489Z,2.63
2023-03-16T16:57:03.233Z,4.67
2023-03-16T16:59:35.683Z,5.90
2023-03-16T17:02:21.308Z,6.53
2023-03-16T17:04:51.178Z,6.63
2023-03-16T17:07:19.991Z,9.27
2023-03-16T17:09:48.683Z,14.17
2023-03-16T17:12:21.376Z,9.07
2023-03-16T17:14:51.878Z,5.50
2023-03-16T17:17:21.553Z,4.57
2023-03-16T17:19:50.317Z,5.13
2023-03-16T17:22:24.427Z,6.33
2023-03-16T17:24:53.221Z,7.20
2023-03-16T17:27:26.125Z,6.47
2023-03-16T17:29:57.089Z,5.07
2023-03-16T17:32:26.607Z,3.47
2023-03-16T17:34:55.533Z,3.83
2023-03-16T17:37:24.702Z,6.57
2023-03-16T17:39:55.676Z,28.70
2023-03-16T17:42:26.485Z,9.77
2023-03-16T17:44:57.982Z,4.70
2023-03-16T17:47:28.859Z,6.40
2023-03-16T17:49:57.876Z,9.03
2023-03-16T17:52:29.770Z,10.53
2023-03-16T17:54:58.687Z,7.43
2023-03-16T17:57:30.674Z,5.77
2023-03-16T18:00:01.874Z,7.20
2023-03-16T18:02:43.819Z,6.50
2023-03-16T18:05:18.868Z,12.00
2023-03-16T18:07:48.386Z,10.70
2023-03-16T18:10:18.070Z,8.97
2023-03-16T18:12:47.620Z,7.97
2023-03-16T18:15:19.475Z,12.30
2023-03-16T18:17:50.029Z,15.10
2023-03-16T18:20:24.536Z,12.10
2023-03-16T18:22:53.328Z,15.70
2023-03-16T18:25:31.531Z,32.47
2023-03-16T18:28:01.770Z,60.93
2023-03-16T18:30:32.853Z,68.37
2023-03-16T18:33:03.076Z,58.20
2023-03-16T18:35:32.898Z,38.47
2023-03-16T18:38:01.892Z,31.57
2023-03-16T18:40:31.666Z,32.50
2023-03-16T18:43:00.523Z,37.43
2023-03-16T18:45:31.731Z,46.87
2023-03-16T18:48:00.719Z,46.10
2023-03-16T18:50:30.362Z,49.10
2023-03-16T18:52:59.310Z,34.83
2023-03-16T18:55:29.403Z,37.47
2023-03-16T18:57:58.700Z,35.50
2023-03-16T19:00:29.756Z,41.97
2023-03-16T19:03:03.219Z,35.30
2023-03-16T19:05:35.961Z,30.07
2023-03-16T19:08:06.375Z,29.47
2023-03-16T19:10:37.066Z,29.23
2023-03-16T19:13:14.658Z,26.80
2023-03-16T19:15:43.826Z,25.57
2023-03-16T19:18:14.143Z,27.10
2023-03-16T19:20:45.260Z,23.70
2023-03-16T19:23:21.763Z,29.03
2023-03-16T19:25:51.609Z,37.20
2023-03-16T19:28:27.985Z,28.07
2023-03-16T19:30:57.523Z,37.73
2023-03-16T19:33:29.310Z,37.43
2023-03-16T19:35:59.182Z,40.13
2023-03-16T19:38:28.367Z,33.97
2023-03-16T19:40:59.610Z,41.83
2023-03-16T19:43:29.374Z,44.73
2023-03-16T19:45:58.348Z,47.77
2023-03-16T19:48:33.379Z,50.27
2023-03-16T19:51:04.385Z,64.87
2023-03-16T19:53:33.167Z,84.33
2023-03-16T19:56:02.043Z,63.57
2023-03-16T19:58:34.099Z,26.43
2023-03-16T20:01:03.155Z,30.77
2023-03-16T20:03:37.529Z,27.87
2023-03-16T20:06:08.788Z,46.70
2023-03-16T20:08:37.504Z,55.50
2023-03-16T20:11:09.226Z,36.87
2023-03-16T20:13:38.361Z,23.10
2023-03-16T20:16:08.186Z,19.10
2023-03-16T20:18:38.512Z,22.40
2023-03-16T20:21:07.506Z,18.33
2023-03-16T20:23:36.272Z,18.73
2023-03-16T20:26:05.171Z,17.33
2023-03-16T20:28:36.847Z,16.77
2023-03-16T20:31:08.799Z,21.57
2023-03-16T20:33:39.026Z,19.53
2023-03-16T20:36:10.992Z,19.83
2023-03-16T20:38:40.066Z,22.57
2023-03-16T20:41:15.115Z,23.27
2023-03-16T20:43:44.804Z,24.67
2023-03-16T20:46:18.667Z,22.00
2023-03-16T20:48:48.841Z,23.83
2023-03-16T20:51:18.425Z,24.20
2023-03-16T20:53:48.050Z,22.27
2023-03-16T20:56:18.416Z,23.13
2023-03-16T20:58:49.780Z,22.37
2023-03-16T21:01:21.115Z,24.77
2023-03-16T21:03:55.073Z,20.97
2023-03-16T21:06:25.739Z,23.90
2023-03-16T21:08:55.891Z,29.07
2023-03-16T21:11:26.623Z,27.40
2023-03-16T21:13:56.341Z,30.40
2023-03-16T21:16:25.343Z,25.80
2023-03-16T21:18:55.803Z,26.30
2023-03-16T21:21:25.001Z,27.70
2023-03-16T21:23:53.998Z,28.20
2023-03-16T21:26:25.107Z,34.93
2023-03-16T21:28:56.793Z,31.43
2023-03-16T21:31:27.153Z,31.37
2023-03-16T21:33:57.731Z,23.63
2023-03-16T21:36:27.450Z,25.00
2023-03-16T21:38:57.199Z,25.50
2023-03-16T21:41:26.017Z,28.13
2023-03-16T21:43:55.922Z,22.37
2023-03-16T21:46:25.607Z,21.57
2023-03-16T21:48:57.389Z,30.03
2023-03-16T21:51:31.493Z,26.77
2023-03-16T21:54:01.627Z,24.67
2023-03-16T21:56:30.550Z,28.83
2023-03-16T21:58:59.275Z,32.00
2023-03-16T22:01:30.304Z,36.60
2023-03-16T22:04:03.889Z,27.87
2023-03-16T22:06:33.185Z,21.43
2023-03-16T22:09:02.699Z,21.70
2023-03-16T22:11:32.057Z,20.83
2023-03-16T22:14:01.493Z,21.73
2023-03-16T22:16:34.870Z,21.27
2023-03-16T22:19:05.969Z,19.23
2023-03-16T22:21:36.599Z,19.37
2023-03-16T22:24:07.215Z,60.93
2023-03-16T22:26:37.440Z,55.67
2023-03-16T22:29:21.341Z,21.37
2023-03-16T22:31:50.566Z,20.30
2023-03-16T22:34:30.696Z,13.50
2023-03-16T22:37:00.130Z,19.20
2023-03-16T22:39:38.508Z,13.17
2023-03-16T22:42:29.145Z,13.37
2023-03-16T22:44:58.452Z,16.33
2023-03-16T22:47:28.985Z,17.77
2023-03-16T22:49:59.243Z,19.63
2023-03-16T22:52:30.904Z,16.47
2023-03-16T22:55:01.410Z,16.80
2023-03-16T22:57:31.610Z,19.33
2023-03-16T23:00:07.006Z,23.13
2023-03-16T23:02:36.108Z,15.83
2023-03-16T23:05:20.776Z,16.03
2023-03-16T23:07:49.949Z,15.33
2023-03-16T23:10:19.995Z,16.10
2023-03-16T23:12:49.336Z,14.33
2023-03-16T23:15:20.714Z,13.87
2023-03-16T23:17:49.624Z,13.17
2023-03-16T23:20:24.506Z,16.33
2023-03-16T23:22:54.101Z,23.80
2023-03-16T23:25:24.170Z,20.50
2023-03-16T23:27:53.670Z,22.33
2023-03-16T23:30:25.772Z,29.80
2023-03-16T23:32:56.708Z,27.07
2023-03-16T23:35:29.789Z,21.13
2023-03-16T23:37:59.237Z,20.77
2023-03-16T23:40:29.798Z,22.40
2023-03-16T23:43:02.170Z,16.90
2023-03-16T23:45:34.723Z,18.50
2023-03-16T23:48:06.623Z,17.50
2023-03-16T23:50:38.208Z,22.80
2023-03-16T23:53:12.297Z,19.50
2023-03-16T23:55:42.402Z,21.63
2023-03-16T23:58:11.944Z,23.67
